Twizzle — 2DKS5 — position and weather

sailwx.info

Track history (hours):
 
Tides and Currents Weather Stations Pressure Air Temp Water Temp Dewpoint Dewpoint Depression Visibility Wind Speed Wind Dir Waves Ship Positions

Twizzle

Last reported at 2016-Jul-01 10:14 UTC. Time now 2016-Jul-01 15:24 UTC.
Position N 40°43' E 014°28'.

Length 58 m; draft 3.8 m.

Type: Sailing vessel. MMSI: 235079813.

Date/timePositionNaut miles runAvg speedWind from/ knotsBaromVisibWave heightAir tempDewpointWater temp
2016-Jul-01 10:14N 40°43' E 014°28'0 0.0
2016-Jul-01 09:32N 40°43' E 014°28'11 2.2
2016-Jul-01 04:31N 40°35' E 014°18'8 8.8
2016-Jul-01 03:33N 40°27' E 014°23'11 9.0
2016-Jul-01 02:22N 40°18' E 014°29'7 8.9
2016-Jul-01 01:33N 40°11' E 014°33'9 8.6
2016-Jul-01 00:31N 40°03' E 014°38'8 8.3
2016-Jun-30 23:31N 39°55' E 014°43'8 8.5
2016-Jun-30 22:33N 39°48' E 014°48'9 8.5
2016-Jun-30 21:33N 39°40' E 014°52'9 8.8
2016-Jun-30 20:33N 39°32' E 014°57'10 8.8
2016-Jun-30 19:23N 39°23' E 015°03'10 9.0
2016-Jun-30 18:18N 39°14' E 015°09'7 9.2
2016-Jun-30 17:33N 39°08' E 015°12'10 9.8
2016-Jun-30 16:33N 38°59' E 015°18'1111.3
2016-Jun-30 15:33N 38°49' E 015°24'1111.4
2016-Jun-30 14:33N 38°39' E 015°30'1111.2
2016-Jun-30 13:33N 38°29' E 015°36'1111.0
2016-Jun-30 12:33N 38°19' E 015°42'1010.2
2016-Jun-30 11:33N 38°09' E 015°37'1010.2
2016-Jun-30 10:33N 37°59' E 015°38'1210.5
2016-Jun-30 09:27N 37°53' E 015°51'  
2016-Jun-22 20:20N 41°29' E 018°52'911.1
2016-Jun-22 19:33N 41°37' E 018°49'1111.4
2016-Jun-22 18:33N 41°48' E 018°45'1110.9
2016-Jun-22 17:33N 41°58' E 018°41'1010.2
2016-Jun-22 16:33N 42°08' E 018°38'1010.5
2016-Jun-22 15:33N 42°19' E 018°34'7 7.4
2016-Jun-22 14:33N 42°26' E 018°36'4 3.7
2016-Jun-22 13:32N 42°26' E 018°41'0 0.0
2016-Jun-22 12:32N 42°26' E 018°41'0 0.0
2016-Jun-22 11:32N 42°26' E 018°41'3 3.1
2016-Jun-22 10:33N 42°26' E 018°37'4 4.0
2016-Jun-22 09:33N 42°24' E 018°32'8 8.1
2016-Jun-22 08:33N 42°25' E 018°21'1010.3
2016-Jun-22 07:33N 42°28' E 018°08'1110.2
2016-Jun-22 06:29N 42°30' E 017°53'7 7.3
2016-Jun-22 05:33N 42°32' E 017°45'7 7.1
2016-Jun-22 04:32N 42°34' E 017°35'10 7.7
2016-Jun-22 03:15N 42°36' E 017°22'  
Track history (hours):
 
Tides and Currents Weather Stations Pressure Air Temp Water Temp Dewpoint Dewpoint Depression Visibility Wind Speed Wind Dir Waves Ship Positions

Twizzle

Last reported at 2016-Jul-01 10:14 UTC. Time now 2016-Jul-01 15:24 UTC.
Position N 40°43' E 014°28'.

Length 58 m; draft 3.8 m.

Type: Sailing vessel. MMSI: 235079813.

Date/timePositionNaut miles runAvg speedWind from/ knotsBaromVisibWave heightAir tempDewpointWater temp
2016-Jul-01 10:14N 40°43' E 014°28'0 0.0
2016-Jul-01 09:32N 40°43' E 014°28'11 2.2
2016-Jul-01 04:31N 40°35' E 014°18'8 8.8
2016-Jul-01 03:33N 40°27' E 014°23'11 9.0
2016-Jul-01 02:22N 40°18' E 014°29'7 8.9
2016-Jul-01 01:33N 40°11' E 014°33'9 8.6
2016-Jul-01 00:31N 40°03' E 014°38'8 8.3
2016-Jun-30 23:31N 39°55' E 014°43'8 8.5
2016-Jun-30 22:33N 39°48' E 014°48'9 8.5
2016-Jun-30 21:33N 39°40' E 014°52'9 8.8
2016-Jun-30 20:33N 39°32' E 014°57'10 8.8
2016-Jun-30 19:23N 39°23' E 015°03'10 9.0
2016-Jun-30 18:18N 39°14' E 015°09'7 9.2
2016-Jun-30 17:33N 39°08' E 015°12'10 9.8
2016-Jun-30 16:33N 38°59' E 015°18'1111.3
2016-Jun-30 15:33N 38°49' E 015°24'1111.4
2016-Jun-30 14:33N 38°39' E 015°30'1111.2
2016-Jun-30 13:33N 38°29' E 015°36'1111.0
2016-Jun-30 12:33N 38°19' E 015°42'1010.2
2016-Jun-30 11:33N 38°09' E 015°37'1010.2
2016-Jun-30 10:33N 37°59' E 015°38'1210.5
2016-Jun-30 09:27N 37°53' E 015°51'  
2016-Jun-22 20:20N 41°29' E 018°52'911.1
2016-Jun-22 19:33N 41°37' E 018°49'1111.4
2016-Jun-22 18:33N 41°48' E 018°45'1110.9
2016-Jun-22 17:33N 41°58' E 018°41'1010.2
2016-Jun-22 16:33N 42°08' E 018°38'1010.5
2016-Jun-22 15:33N 42°19' E 018°34'7 7.4
2016-Jun-22 14:33N 42°26' E 018°36'4 3.7
2016-Jun-22 13:32N 42°26' E 018°41'0 0.0
2016-Jun-22 12:32N 42°26' E 018°41'0 0.0
2016-Jun-22 11:32N 42°26' E 018°41'3 3.1
2016-Jun-22 10:33N 42°26' E 018°37'4 4.0
2016-Jun-22 09:33N 42°24' E 018°32'8 8.1
2016-Jun-22 08:33N 42°25' E 018°21'1010.3
2016-Jun-22 07:33N 42°28' E 018°08'1110.2
2016-Jun-22 06:29N 42°30' E 017°53'7 7.3
2016-Jun-22 05:33N 42°32' E 017°45'7 7.1
2016-Jun-22 04:32N 42°34' E 017°35'10 7.7
2016-Jun-22 03:15N 42°36' E 017°22'  

Dump ship's entire track history